Siasconset, Massachusetts
Current Conditions -  °F | °C
As of 3:53 AM on Monday 20 Oct 2014 (Local Time) from KACK Reporting Station
Clear Clear  
Wind Chill: 38°   Ceiling: Unl
Heat Index: 44°   Visibility: 10mi
Dew Point: 27°   Wind: 12mph
Humidity: 51%   Direction: 320°NW
Pressure: 29.99"   Gusts: NA
Location:  41.26°N, 69.97°W
Report Text: KACK 200753Z AUTO 32010KT 10SM CLR 07/M03 A2999 RMK AO2 SLP156 T00671028
Loading
Personal Weather Stations






























Interactive Weather Map
Tropical Storm Tracking
New forecast layout! Learn more

10-Day Weather Forecast

Advertisements
Track Severe Weather on mobile